createdAt,value
2023-01-17T00:05:20.827Z,96.99
2023-01-17T00:10:26.130Z,96.94
2023-01-17T00:15:30.908Z,97.04
2023-01-17T00:20:51.420Z,97.02
2023-01-17T00:26:13.127Z,97.08
2023-01-17T00:31:16.980Z,97.22
2023-01-17T00:36:20.747Z,97.33
2023-01-17T00:41:23.268Z,97.50
2023-01-17T00:46:45.332Z,97.88
2023-01-17T00:52:06.685Z,98.50
2023-01-17T00:57:28.154Z,99.34
2023-01-17T01:02:49.428Z,99.85
2023-01-17T01:08:11.262Z,100.00
2023-01-17T01:13:32.595Z,100.00
2023-01-17T01:18:54.088Z,100.00
2023-01-17T01:24:15.415Z,100.00
2023-01-17T01:29:36.599Z,100.00
2023-01-17T01:34:39.619Z,100.00
2023-01-17T01:39:42.312Z,100.00
2023-01-17T01:44:51.372Z,100.00
2023-01-17T01:49:54.435Z,100.00
2023-01-17T01:55:01.055Z,100.00
2023-01-17T02:00:14.592Z,100.00
2023-01-17T02:05:20.095Z,100.00
2023-01-17T02:10:22.899Z,100.00
2023-01-17T02:15:32.861Z,100.00
2023-01-17T02:21:03.504Z,100.00
2023-01-17T02:26:30.459Z,100.00
2023-01-17T02:32:03.206Z,100.00
2023-01-17T02:37:13.180Z,100.00
2023-01-17T02:42:19.624Z,100.00
2023-01-17T02:47:30.439Z,99.93
2023-01-17T02:53:00.896Z,99.91
2023-01-17T02:58:06.209Z,99.75
2023-01-17T03:03:54.043Z,99.53
2023-01-17T03:08:56.912Z,99.11
2023-01-17T03:13:59.491Z,99.04
2023-01-17T03:19:02.422Z,98.78
2023-01-17T03:24:05.937Z,98.63
2023-01-17T03:29:08.641Z,98.34
2023-01-17T03:34:11.220Z,98.33
2023-01-17T03:39:14.140Z,98.47
2023-01-17T03:44:16.728Z,98.59
2023-01-17T03:49:19.825Z,98.58
2023-01-17T03:54:22.424Z,98.81
2023-01-17T03:59:25.116Z,98.84
2023-01-17T04:04:27.705Z,98.68
2023-01-17T04:09:33.999Z,98.75
2023-01-17T04:14:36.731Z,98.73
2023-01-17T04:19:41.007Z,98.63
2023-01-17T04:24:43.554Z,98.67
2023-01-17T04:29:46.886Z,99.10
2023-01-17T04:34:49.592Z,99.15
2023-01-17T04:39:52.155Z,99.07
2023-01-17T04:44:54.830Z,99.40
2023-01-17T04:49:57.441Z,99.41
2023-01-17T04:55:00.013Z,99.47
2023-01-17T05:00:02.940Z,99.59
2023-01-17T05:05:07.222Z,99.79
2023-01-17T05:10:10.682Z,99.88
2023-01-17T05:15:13.536Z,99.99
2023-01-17T05:20:16.192Z,100.00
2023-01-17T05:25:18.800Z,100.00
2023-01-17T05:30:21.893Z,100.00
2023-01-17T05:35:28.438Z,100.00
2023-01-17T05:40:32.822Z,100.00
2023-01-17T05:45:35.941Z,100.00
2023-01-17T05:50:38.755Z,100.00
2023-01-17T05:55:42.616Z,100.00
2023-01-17T06:00:45.562Z,100.00
2023-01-17T06:05:48.529Z,100.00
2023-01-17T06:10:51.253Z,100.00
2023-01-17T06:15:53.877Z,100.00
2023-01-17T06:20:57.117Z,100.00
2023-01-17T06:26:03.839Z,100.00
2023-01-17T06:31:09.776Z,100.00
2023-01-17T06:36:12.550Z,100.00
2023-01-17T06:41:15.162Z,100.00
2023-01-17T06:46:17.759Z,100.00
2023-01-17T06:51:20.715Z,100.00
2023-01-17T06:56:23.371Z,100.00
2023-01-17T07:01:26.266Z,100.00
2023-01-17T07:06:29.171Z,100.00
2023-01-17T07:11:32.923Z,100.00
2023-01-17T07:16:35.656Z,100.00
2023-01-17T07:21:38.800Z,100.00
2023-01-17T07:26:41.499Z,100.00
2023-01-17T07:31:44.523Z,100.00
2023-01-17T07:36:49.641Z,100.00
2023-01-17T07:41:53.251Z,100.00
2023-01-17T07:46:55.920Z,99.75
2023-01-17T07:51:59.242Z,99.33
2023-01-17T07:57:02.510Z,98.29
2023-01-17T08:02:15.533Z,97.29
2023-01-17T08:07:18.216Z,97.06
2023-01-17T08:12:22.161Z,96.71
2023-01-17T08:17:24.832Z,96.26
2023-01-17T08:22:30.443Z,95.82
2023-01-17T08:27:35.092Z,95.67
2023-01-17T08:32:41.315Z,95.57
2023-01-17T08:37:44.090Z,95.10
2023-01-17T08:43:05.833Z,94.84
2023-01-17T08:48:08.511Z,94.31
2023-01-17T08:53:11.288Z,94.22
2023-01-17T08:58:14.339Z,93.59
2023-01-17T09:03:18.069Z,93.47
2023-01-17T09:08:21.083Z,93.23
2023-01-17T09:13:23.828Z,92.37
2023-01-17T09:18:27.989Z,91.65
2023-01-17T09:23:30.936Z,91.86
2023-01-17T09:28:40.906Z,90.83
2023-01-17T09:33:43.642Z,90.55
2023-01-17T09:38:46.694Z,89.87
2023-01-17T09:43:54.491Z,89.25
2023-01-17T09:49:07.242Z,88.64
2023-01-17T09:54:21.893Z,87.71
2023-01-17T10:00:04.038Z,87.17
2023-01-17T10:05:07.649Z,86.14
2023-01-17T10:10:58.494Z,85.47
2023-01-17T10:16:22.928Z,85.62
2023-01-17T10:21:50.089Z,84.83
2023-01-17T10:26:57.684Z,84.37
2023-01-17T10:32:03.692Z,84.12
2023-01-17T10:37:44.383Z,82.98
2023-01-17T10:43:02.565Z,82.93
2023-01-17T10:48:46.982Z,83.30
2023-01-17T10:54:15.380Z,82.91
2023-01-17T10:59:39.900Z,82.98
2023-01-17T11:04:55.201Z,82.11
2023-01-17T11:10:01.971Z,82.05
2023-01-17T11:15:28.193Z,81.76
2023-01-17T11:20:38.628Z,81.99
2023-01-17T11:25:58.262Z,81.86
2023-01-17T11:31:07.820Z,81.69
2023-01-17T11:36:20.367Z,81.41
2023-01-17T11:41:40.283Z,81.18
2023-01-17T11:46:43.989Z,80.83
2023-01-17T11:51:47.733Z,80.21
2023-01-17T11:57:05.290Z,79.96
2023-01-17T12:02:34.764Z,79.76
2023-01-17T12:08:01.007Z,79.50
2023-01-17T12:13:41.489Z,79.17
2023-01-17T12:19:10.295Z,79.33
2023-01-17T12:24:19.928Z,79.03
2023-01-17T12:29:42.687Z,79.46
2023-01-17T12:35:05.678Z,79.17
2023-01-17T12:40:22.503Z,79.10
2023-01-17T12:45:38.825Z,79.22
2023-01-17T12:51:38.202Z,79.39
2023-01-17T12:56:49.260Z,79.37
2023-01-17T13:01:58.587Z,79.18
2023-01-17T13:07:38.089Z,79.43
2023-01-17T13:12:48.223Z,79.48
2023-01-17T13:18:17.756Z,79.63
2023-01-17T13:23:30.592Z,80.05
2023-01-17T13:28:45.140Z,80.24
2023-01-17T13:34:23.585Z,80.48
2023-01-17T13:39:34.948Z,80.89
2023-01-17T13:50:47.562Z,81.67
2023-01-17T13:56:00.310Z,81.53
2023-01-17T14:01:04.210Z,81.19
2023-01-17T14:06:36.650Z,81.16
2023-01-17T14:12:06.519Z,81.23
2023-01-17T14:17:31.186Z,81.35
2023-01-17T14:22:38.717Z,81.60
2023-01-17T14:27:51.888Z,81.78
2023-01-17T14:33:01.675Z,81.89
2023-01-17T14:38:19.126Z,82.03
2023-01-17T14:43:24.988Z,82.35
2023-01-17T14:48:29.287Z,82.43
2023-01-17T14:53:34.235Z,82.45
2023-01-17T14:58:37.921Z,82.52
2023-01-17T15:03:50.427Z,82.49
2023-01-17T15:08:54.444Z,82.48
2023-01-17T15:14:00.540Z,82.24
2023-01-17T15:19:11.940Z,81.83
2023-01-17T15:24:34.780Z,81.38
2023-01-17T15:29:43.509Z,80.98
2023-01-17T15:34:50.081Z,81.07
2023-01-17T15:40:08.290Z,80.98
2023-01-17T15:45:16.491Z,80.97
2023-01-17T15:50:28.010Z,80.98
2023-01-17T15:55:39.333Z,80.86
2023-01-17T16:00:48.557Z,80.83
2023-01-17T16:05:58.154Z,80.97
2023-01-17T16:15:26.467Z,81.14
2023-01-17T16:20:54.439Z,81.08
2023-01-17T16:25:58.330Z,81.10
2023-01-17T16:31:02.089Z,81.12
2023-01-17T16:36:06.501Z,81.03
2023-01-17T16:41:11.100Z,81.08
2023-01-17T16:46:15.657Z,81.27
2023-01-17T16:51:22.902Z,81.54
2023-01-17T16:56:26.429Z,81.59
2023-01-17T17:01:30.332Z,81.48
2023-01-17T17:06:34.641Z,81.35
2023-01-17T17:11:38.826Z,81.20
2023-01-17T17:16:42.444Z,81.12
2023-01-17T17:21:46.640Z,80.92
2023-01-17T17:26:50.203Z,80.57
2023-01-17T17:31:54.136Z,80.35
2023-01-17T17:36:57.760Z,80.21
2023-01-17T17:42:01.483Z,79.87
2023-01-17T17:47:05.214Z,79.89
2023-01-17T17:52:09.447Z,79.95
2023-01-17T17:57:13.073Z,80.05
2023-01-17T18:02:16.799Z,80.05
2023-01-17T18:07:20.421Z,80.35
2023-01-17T18:12:23.858Z,80.39
2023-01-17T18:17:27.233Z,80.44
2023-01-17T18:22:32.651Z,80.59
2023-01-17T18:27:36.249Z,80.62
2023-01-17T18:32:39.769Z,80.69
2023-01-17T18:37:43.197Z,80.84
2023-01-17T18:42:49.476Z,81.17
2023-01-17T18:47:53.094Z,81.44
2023-01-17T18:52:56.979Z,81.79
2023-01-17T18:58:00.442Z,82.03
2023-01-17T19:03:06.595Z,82.27
2023-01-17T19:08:10.043Z,82.50
2023-01-17T19:13:13.665Z,82.63
2023-01-17T19:18:17.191Z,82.88
2023-01-17T19:23:22.144Z,83.20
2023-01-17T19:28:25.608Z,83.20
2023-01-17T19:33:29.308Z,83.38
2023-01-17T19:38:36.205Z,83.48
2023-01-17T19:43:40.327Z,83.60
2023-01-17T19:48:45.169Z,83.74
2023-01-17T19:53:48.905Z,83.91
2023-01-17T19:58:53.188Z,84.11
2023-01-17T20:03:58.672Z,84.24
2023-01-17T20:09:03.093Z,84.62
2023-01-17T20:14:06.575Z,84.82
2023-01-17T20:19:10.186Z,85.00
2023-01-17T20:24:14.119Z,85.30
2023-01-17T20:29:18.676Z,85.75
2023-01-17T20:34:25.942Z,85.91
2023-01-17T20:39:29.907Z,86.11
2023-01-17T20:44:34.751Z,86.40
2023-01-17T20:49:38.577Z,86.89
2023-01-17T20:54:43.940Z,86.99
2023-01-17T20:59:48.716Z,87.14
2023-01-17T21:04:54.872Z,87.45
2023-01-17T21:09:58.607Z,87.60
2023-01-17T21:15:02.229Z,87.64
2023-01-17T21:20:08.337Z,87.65
2023-01-17T21:25:11.820Z,88.08
2023-01-17T21:30:15.860Z,88.11
2023-01-17T21:35:21.497Z,88.21
2023-01-17T21:40:25.309Z,88.33
2023-01-17T21:45:32.666Z,88.49
2023-01-17T21:50:36.091Z,88.60
2023-01-17T21:55:57.919Z,88.61
2023-01-17T22:01:11.333Z,88.63
2023-01-17T22:06:14.963Z,88.63
2023-01-17T22:11:21.243Z,88.77
2023-01-17T22:16:25.937Z,88.98
2023-01-17T22:21:29.444Z,88.85
2023-01-17T22:26:33.067Z,88.68
2023-01-17T22:31:36.793Z,88.79
2023-01-17T22:36:40.607Z,89.11
2023-01-17T22:41:44.172Z,89.50
2023-01-17T22:46:48.399Z,89.98
2023-01-17T22:51:51.904Z,90.13
2023-01-17T22:56:55.525Z,90.55
2023-01-17T23:01:59.969Z,90.80
2023-01-17T23:07:03.523Z,90.74
2023-01-17T23:12:07.269Z,90.57
2023-01-17T23:17:29.359Z,90.53
2023-01-17T23:22:32.882Z,90.44
2023-01-17T23:27:59.578Z,90.54
2023-01-17T23:33:06.599Z,90.55
2023-01-17T23:38:29.119Z,90.82
2023-01-17T23:43:33.487Z,90.97
2023-01-17T23:48:37.152Z,91.36
2023-01-17T23:53:41.093Z,91.80
2023-01-17T23:58:44.973Z,91.70
